CheckWX is a tool to help pilots better visualize weather data.  It is not intended as a substitute for an official pre-flight weather briefing.

10:12:41 UTC

KCCR METAR
Buchanan Field Airport
Concord, California, USA
Current

20 mins ago

KCCR 260953Z AUTO 00000KT 10SM CLR 10/02 A3028 RMK AO2 SLP240 T01000022
Observed
Feb-26 @ 09:53 UTC
Visibility
10 SM
Flight Rules
VFR
Cloud Levels
  • Clear skies
Temperature
10°C / 50°F
Dewpoint
C / 36°F
Humidity
58%
Altimeter
30.28" Hg
Pressure
1025.42 hPa
Previous

1 hour ago

KCCR 260853Z AUTO 16003KT 10SM CLR 12/02 A3028 RMK AO2 SLP238 T01170022 53001
Observed
Feb-26 @ 08:53 UTC
Wind
  • 160° at 3 KTS
Visibility
10 SM
Flight Rules
VFR
Cloud Levels
  • Clear skies
Temperature
12°C / 54°F
Dewpoint
C / 36°F
Humidity
51%
Altimeter
30.28" Hg
Pressure
1025.42 hPa
Previous

2 hours ago

KCCR 260753Z AUTO 15003KT 10SM CLR 12/02 A3027 RMK AO2 SLP236 T01220022 402440067
Observed
Feb-26 @ 07:53 UTC
Wind
  • 150° at 3 KTS
Visibility
10 SM
Flight Rules
VFR
Cloud Levels
  • Clear skies
Temperature
12°C / 54°F
Dewpoint
C / 36°F
Humidity
51%
Altimeter
30.27" Hg
Pressure
1025.02 hPa